sensor_id;sensor_type;location;lat;lon;timestamp;P1;durP1;ratioP1;P2;durP2;ratioP2
22863;SDS011;11599;49.882;8.680;2022-10-30T00:00:41;11.80;;;4.40;;
22863;SDS011;11599;49.882;8.680;2022-10-30T00:11:07;7.43;;;3.80;;
22863;SDS011;11599;49.882;8.680;2022-10-30T00:21:29;11.27;;;4.00;;
22863;SDS011;11599;49.882;8.680;2022-10-30T00:31:52;9.13;;;3.57;;
22863;SDS011;11599;49.882;8.680;2022-10-30T00:42:14;7.27;;;3.17;;
22863;SDS011;11599;49.882;8.680;2022-10-30T00:52:37;9.20;;;3.97;;
22863;SDS011;11599;49.882;8.680;2022-10-30T01:03:01;7.30;;;3.93;;
22863;SDS011;11599;49.882;8.680;2022-10-30T01:13:24;10.60;;;3.90;;
22863;SDS011;11599;49.882;8.680;2022-10-30T01:23:52;11.23;;;3.40;;
22863;SDS011;11599;49.882;8.680;2022-10-30T01:34:18;8.97;;;2.90;;
22863;SDS011;11599;49.882;8.680;2022-10-30T01:44:41;6.27;;;3.20;;
22863;SDS011;11599;49.882;8.680;2022-10-30T01:55:11;11.73;;;3.80;;
22863;SDS011;11599;49.882;8.680;2022-10-30T02:05:35;9.20;;;3.57;;
22863;SDS011;11599;49.882;8.680;2022-10-30T02:15:59;8.57;;;3.80;;
22863;SDS011;11599;49.882;8.680;2022-10-30T02:26:22;8.77;;;3.00;;
22863;SDS011;11599;49.882;8.680;2022-10-30T02:36:43;5.87;;;3.07;;
22863;SDS011;11599;49.882;8.680;2022-10-30T02:47:06;11.80;;;3.10;;
22863;SDS011;11599;49.882;8.680;2022-10-30T02:57:27;6.37;;;3.30;;
22863;SDS011;11599;49.882;8.680;2022-10-30T03:07:50;6.23;;;3.00;;
22863;SDS011;11599;49.882;8.680;2022-10-30T03:18:12;11.23;;;3.07;;
22863;SDS011;11599;49.882;8.680;2022-10-30T03:28:36;10.90;;;3.40;;
22863;SDS011;11599;49.882;8.680;2022-10-30T03:38:58;7.73;;;2.97;;
22863;SDS011;11599;49.882;8.680;2022-10-30T03:49:21;11.23;;;3.30;;
22863;SDS011;11599;49.882;8.680;2022-10-30T03:59:43;15.03;;;3.37;;
22863;SDS011;11599;49.882;8.680;2022-10-30T04:10:23;7.43;;;2.93;;
22863;SDS011;11599;49.882;8.680;2022-10-30T04:20:46;12.20;;;2.70;;
22863;SDS011;11599;49.882;8.680;2022-10-30T04:31:10;12.00;;;2.90;;
22863;SDS011;11599;49.882;8.680;2022-10-30T04:41:31;13.27;;;3.50;;
22863;SDS011;11599;49.882;8.680;2022-10-30T04:52:00;8.77;;;3.30;;
22863;SDS011;11599;49.882;8.680;2022-10-30T05:02:21;8.80;;;3.10;;
22863;SDS011;11599;49.882;8.680;2022-10-30T05:12:44;7.17;;;3.23;;
22863;SDS011;11599;49.882;8.680;2022-10-30T05:23:06;7.93;;;3.20;;
22863;SDS011;11599;49.882;8.680;2022-10-30T05:33:29;7.93;;;3.50;;
22863;SDS011;11599;49.882;8.680;2022-10-30T05:43:50;7.70;;;3.20;;
22863;SDS011;11599;49.882;8.680;2022-10-30T05:54:13;9.33;;;3.00;;
22863;SDS011;11599;49.882;8.680;2022-10-30T06:04:49;6.60;;;3.20;;
22863;SDS011;11599;49.882;8.680;2022-10-30T06:15:13;11.73;;;3.20;;
22863;SDS011;11599;49.882;8.680;2022-10-30T06:25:35;6.27;;;2.73;;
22863;SDS011;11599;49.882;8.680;2022-10-30T06:36:08;5.17;;;3.03;;
22863;SDS011;11599;49.882;8.680;2022-10-30T06:46:30;8.87;;;3.07;;
22863;SDS011;11599;49.882;8.680;2022-10-30T06:56:53;13.47;;;3.50;;
22863;SDS011;11599;49.882;8.680;2022-10-30T07:07:44;8.80;;;3.20;;
22863;SDS011;11599;49.882;8.680;2022-10-30T07:18:09;9.63;;;2.73;;
22863;SDS011;11599;49.882;8.680;2022-10-30T07:28:30;7.00;;;2.93;;
22863;SDS011;11599;49.882;8.680;2022-10-30T07:39:12;13.70;;;3.20;;
22863;SDS011;11599;49.882;8.680;2022-10-30T07:49:52;7.07;;;3.40;;
22863;SDS011;11599;49.882;8.680;2022-10-30T08:00:15;9.30;;;3.23;;
22863;SDS011;11599;49.882;8.680;2022-10-30T08:10:47;8.10;;;4.20;;
22863;SDS011;11599;49.882;8.680;2022-10-30T08:21:10;11.97;;;3.97;;
22863;SDS011;11599;49.882;8.680;2022-10-30T08:31:42;17.77;;;4.70;;
22863;SDS011;11599;49.882;8.680;2022-10-30T08:42:24;10.93;;;5.27;;
22863;SDS011;11599;49.882;8.680;2022-10-30T08:52:47;14.90;;;5.77;;
22863;SDS011;11599;49.882;8.680;2022-10-30T09:03:12;17.30;;;5.93;;
22863;SDS011;11599;49.882;8.680;2022-10-30T09:13:36;16.48;;;5.90;;
22863;SDS011;11599;49.882;8.680;2022-10-30T09:24:01;18.33;;;5.75;;
22863;SDS011;11599;49.882;8.680;2022-10-30T09:34:27;18.25;;;4.82;;
22863;SDS011;11599;49.882;8.680;2022-10-30T09:56:18;9.85;;;3.50;;
22863;SDS011;11599;49.882;8.680;2022-10-30T10:06:46;9.30;;;3.70;;
22863;SDS011;11599;49.882;8.680;2022-10-30T10:17:32;7.65;;;3.33;;
22863;SDS011;11599;49.882;8.680;2022-10-30T10:28:11;8.30;;;3.50;;
22863;SDS011;11599;49.882;8.680;2022-10-30T10:38:43;9.52;;;4.10;;
22863;SDS011;11599;49.882;8.680;2022-10-30T10:49:48;12.48;;;4.53;;
22863;SDS011;11599;49.882;8.680;2022-10-30T11:00:43;9.87;;;4.80;;
22863;SDS011;11599;49.882;8.680;2022-10-30T11:11:32;15.10;;;5.03;;
22863;SDS011;11599;49.882;8.680;2022-10-30T11:22:43;12.32;;;5.22;;
22863;SDS011;11599;49.882;8.680;2022-10-30T11:33:20;8.52;;;3.70;;
22863;SDS011;11599;49.882;8.680;2022-10-30T11:55:39;8.25;;;3.63;;
22863;SDS011;11599;49.882;8.680;2022-10-30T12:06:37;8.20;;;3.53;;
22863;SDS011;11599;49.882;8.680;2022-10-30T12:40:04;12.88;;;3.72;;
22863;SDS011;11599;49.882;8.680;2022-10-30T12:50:50;11.27;;;3.70;;
22863;SDS011;11599;49.882;8.680;2022-10-30T13:01:40;12.50;;;3.65;;
22863;SDS011;11599;49.882;8.680;2022-10-30T13:12:43;7.22;;;2.83;;
22863;SDS011;11599;49.882;8.680;2022-10-30T13:34:15;5.35;;;2.80;;
22863;SDS011;11599;49.882;8.680;2022-10-30T13:44:45;6.95;;;2.28;;
22863;SDS011;11599;49.882;8.680;2022-10-30T13:55:15;8.48;;;2.63;;
22863;SDS011;11599;49.882;8.680;2022-10-30T14:05:40;6.43;;;1.90;;
22863;SDS011;11599;49.882;8.680;2022-10-30T14:16:05;6.75;;;2.40;;
22863;SDS011;11599;49.882;8.680;2022-10-30T14:26:26;6.75;;;2.10;;
22863;SDS011;11599;49.882;8.680;2022-10-30T14:36:49;7.93;;;2.35;;
22863;SDS011;11599;49.882;8.680;2022-10-30T14:47:19;12.30;;;2.47;;
22863;SDS011;11599;49.882;8.680;2022-10-30T14:57:45;10.90;;;2.30;;
22863;SDS011;11599;49.882;8.680;2022-10-30T15:08:11;5.65;;;2.10;;
22863;SDS011;11599;49.882;8.680;2022-10-30T15:18:41;6.78;;;2.17;;
22863;SDS011;11599;49.882;8.680;2022-10-30T15:29:10;9.60;;;2.28;;
22863;SDS011;11599;49.882;8.680;2022-10-30T15:39:45;6.85;;;2.72;;
22863;SDS011;11599;49.882;8.680;2022-10-30T15:50:08;8.30;;;2.40;;
22863;SDS011;11599;49.882;8.680;2022-10-30T16:00:34;6.13;;;2.10;;
22863;SDS011;11599;49.882;8.680;2022-10-30T16:10:56;8.70;;;2.60;;
22863;SDS011;11599;49.882;8.680;2022-10-30T16:21:21;9.52;;;2.67;;
22863;SDS011;11599;49.882;8.680;2022-10-30T16:31:51;11.13;;;2.40;;
22863;SDS011;11599;49.882;8.680;2022-10-30T16:42:22;8.70;;;2.63;;
22863;SDS011;11599;49.882;8.680;2022-10-30T16:53:03;8.98;;;2.72;;
22863;SDS011;11599;49.882;8.680;2022-10-30T17:14:17;5.90;;;2.47;;
22863;SDS011;11599;49.882;8.680;2022-10-30T17:24:39;9.93;;;2.90;;
22863;SDS011;11599;49.882;8.680;2022-10-30T17:35:08;7.13;;;3.07;;
22863;SDS011;11599;49.882;8.680;2022-10-30T17:45:32;7.37;;;2.53;;
22863;SDS011;11599;49.882;8.680;2022-10-30T17:56:00;9.50;;;3.50;;
22863;SDS011;11599;49.882;8.680;2022-10-30T18:06:23;7.87;;;2.67;;
22863;SDS011;11599;49.882;8.680;2022-10-30T18:16:46;9.93;;;2.77;;
22863;SDS011;11599;49.882;8.680;2022-10-30T18:27:07;5.47;;;2.60;;
22863;SDS011;11599;49.882;8.680;2022-10-30T18:37:30;9.43;;;3.17;;
22863;SDS011;11599;49.882;8.680;2022-10-30T18:47:52;8.03;;;2.60;;
22863;SDS011;11599;49.882;8.680;2022-10-30T18:58:15;10.50;;;2.80;;
22863;SDS011;11599;49.882;8.680;2022-10-30T19:08:37;11.93;;;3.10;;
22863;SDS011;11599;49.882;8.680;2022-10-30T19:19:00;10.53;;;2.87;;
22863;SDS011;11599;49.882;8.680;2022-10-30T19:29:41;9.07;;;3.07;;
22863;SDS011;11599;49.882;8.680;2022-10-30T19:40:25;12.07;;;3.13;;
22863;SDS011;11599;49.882;8.680;2022-10-30T19:51:07;5.20;;;2.23;;
22863;SDS011;11599;49.882;8.680;2022-10-30T20:01:52;7.60;;;2.37;;
22863;SDS011;11599;49.882;8.680;2022-10-30T20:12:34;4.83;;;2.40;;
22863;SDS011;11599;49.882;8.680;2022-10-30T20:23:17;5.53;;;2.67;;
22863;SDS011;11599;49.882;8.680;2022-10-30T20:33:59;8.07;;;2.80;;
22863;SDS011;11599;49.882;8.680;2022-10-30T20:44:43;8.57;;;2.70;;
22863;SDS011;11599;49.882;8.680;2022-10-30T20:55:24;10.30;;;3.13;;
22863;SDS011;11599;49.882;8.680;2022-10-30T21:06:08;8.43;;;3.10;;
22863;SDS011;11599;49.882;8.680;2022-10-30T21:16:50;7.83;;;2.83;;
22863;SDS011;11599;49.882;8.680;2022-10-30T21:27:33;7.83;;;3.07;;
22863;SDS011;11599;49.882;8.680;2022-10-30T21:38:15;9.67;;;3.30;;
22863;SDS011;11599;49.882;8.680;2022-10-30T21:49:02;8.13;;;2.73;;
22863;SDS011;11599;49.882;8.680;2022-10-30T21:59:44;6.70;;;3.17;;
22863;SDS011;11599;49.882;8.680;2022-10-30T22:10:27;8.47;;;2.73;;
22863;SDS011;11599;49.882;8.680;2022-10-30T22:21:10;8.17;;;2.83;;
22863;SDS011;11599;49.882;8.680;2022-10-30T22:31:53;13.43;;;3.53;;
22863;SDS011;11599;49.882;8.680;2022-10-30T22:42:35;10.97;;;3.23;;
22863;SDS011;11599;49.882;8.680;2022-10-30T22:53:18;5.83;;;3.20;;
22863;SDS011;11599;49.882;8.680;2022-10-30T23:04:00;7.97;;;3.10;;
22863;SDS011;11599;49.882;8.680;2022-10-30T23:14:43;6.90;;;2.90;;
22863;SDS011;11599;49.882;8.680;2022-10-30T23:25:25;6.07;;;2.87;;
22863;SDS011;11599;49.882;8.680;2022-10-30T23:36:08;14.00;;;3.50;;
22863;SDS011;11599;49.882;8.680;2022-10-30T23:46:50;10.20;;;4.70;;
22863;SDS011;11599;49.882;8.680;2022-10-30T23:57:33;11.37;;;4.10;;
